Archival Weather

Chandler Muni

Chandler, Arizona (KCHD)

Report from: Wednesday, December 6, 2023 9:47 AM MST
Current time: Wednesday, April 24, 2024 11:11 AM MST

Current weather – Weather history – Daily summaries
Weather forecast

Temperature17.0°C (62.6°F)
Dew point4.0°C (39.2°F)
Winds Calm
Visibility10 mi. (16.1 km)
Clouds Few clouds 20,000 ft. (6,096 m)
Altimeter30.13 in.Hg (1020 mB)
Relative humidity42 %
Density altitude119 ft. (36 m)
Flight conditions Visual Meteorological Conditions
Raw dataKCHD 061647Z 00000KT 10SM FEW200 17/04 A3013
An error has occurred. This application may no longer respond until reloaded. Reload 🗙